NOAA Web Site Link Tides and Currents Home Page Transparent placeholder image

PORTS® Data Listing: 8537121 Ship John Shoal, NJ

CO-OPS RAW PORTS DATA

************************      PRELIMINARY DATA      ************************** 

     THIS RAW DATA HAS NOT BEEN SUBJECT TO THE NATIONAL OCEAN SERVICE'S        
     QUALITY CONTROL OR QUALITY ASSURANCE PROCEDURES AND DOES NOT MEET         
     THE CRITERIA AND STANDARDS OF OFFICIAL NATIONAL OCEAN SERVICE             
     DATA.  IT IS RELEASED FOR LIMITED PUBLIC USE AS PRELIMINARY DATA TO       
     BE USED ONLY WITH APPROPRIATE CAUTION.                                    

************************      PRELIMINARY DATA      ************************** 


       CD   -   Calendar date
       T    -   Time
       TZ   -   Timezone
       PW   -   Predicted water level (feet above MLLW)
       OW   -   Observed water level (feet above MLLW)
       WS   -   Wind speed (knots)
       WD   -   Wind direction (degrees true)
       WG   -   Wind gust (knots)
       AT   -   Air temperature (degrees farenheit)
       WT   -   Water temperature (degrees farenheit)
       AP   -   Air pressure (millibars)
       SA   -   Salinty (PSU - Practical Salinity Units)
       SG   -   Specific gravity
       RH   -   Relative humidity
       AG   -   Air gap (feet)
       VI   -   Visibility (nautical miles)

       ** NOTE **
       A variable that has its data fields filled with "9"s, indicates that
       data was not collected for that sample period.
       **********


STATION NAME: Ship John Shoal (8537121)
****************************************************************************************************
    CD       T    TZ    PW     OW    WS   WD   WG    AT    WT    AP    SA    SG     RH    AG   VI
****************************************************************************************************
2018/10/19 04:18 EDT    3.85   3.79    8  254   10  49.1  64.4 1027.9 -9.9 -9.999 -99.9 -99.99 -9.99
2018/10/19 04:24 EDT    3.95   3.90    8  255   10  49.5  64.4 1027.8 -9.9 -9.999 -99.9 -99.99 -9.99
2018/10/19 04:30 EDT    4.04   4.01    8  256    9  50.4  64.4 1027.7 -9.9 -9.999 -99.9 -99.99 -9.99
2018/10/19 04:36 EDT    4.13   4.11    8  245    9  50.4  64.2 1027.8 -9.9 -9.999 -99.9 -99.99 -9.99
2018/10/19 04:42 EDT    4.21   4.21    9  244   10  49.8  64.0 1027.8 -9.9 -9.999 -99.9 -99.99 -9.99
2018/10/19 04:48 EDT    4.30   4.31    9  243   11  48.9  64.0 1027.9 -9.9 -9.999 -99.9 -99.99 -9.99
2018/10/19 04:54 EDT    4.38   4.41    9  244   11  48.7  63.9 1027.9 -9.9 -9.999 -99.9 -99.99 -9.99
2018/10/19 05:00 EDT    4.46   4.50    9  249   10  48.6  63.9 1027.9 -9.9 -9.999 -99.9 -99.99 -9.99
2018/10/19 05:06 EDT    4.54   4.59    9  249   10  48.9  63.9 1027.8 -9.9 -9.999 -99.9 -99.99 -9.99
2018/10/19 05:12 EDT    4.61   4.68    8  255   11  48.9  63.9 1027.8 -9.9 -9.999 -99.9 -99.99 -9.99
2018/10/19 05:18 EDT    4.69   4.78    9  252   11  48.9  63.9 1027.9 -9.9 -9.999 -99.9 -99.99 -9.99
2018/10/19 05:24 EDT    4.75   4.87    9  250   11  48.4  63.9 1027.9 -9.9 -9.999 -99.9 -99.99 -9.99
2018/10/19 05:30 EDT    4.82   4.96    8  246   10  48.2  63.9 1028.0 -9.9 -9.999 -99.9 -99.99 -9.99
2018/10/19 05:36 EDT    4.88   5.04    9  243   11  48.2  64.0 1027.9 -9.9 -9.999 -99.9 -99.99 -9.99
2018/10/19 05:42 EDT    4.93   5.11   10  256   11  48.7  64.0 1028.0 -9.9 -9.999 -99.9 -99.99 -9.99
2018/10/19 05:48 EDT    4.98   5.18   10  256   11  48.9  64.0 1028.0 -9.9 -9.999 -99.9 -99.99 -9.99
2018/10/19 05:54 EDT    5.02   5.24    9  260   11  48.7  64.2 1027.9 -9.9 -9.999 -99.9 -99.99 -9.99
2018/10/19 06:00 EDT    5.06   5.30   10  255   11  48.7  64.2 1028.0 -9.9 -9.999 -99.9 -99.99 -9.99
2018/10/19 06:06 EDT    5.10   5.34    9  249   11  48.4  64.4 1027.9 -9.9 -9.999 -99.9 -99.99 -9.99
2018/10/19 06:12 EDT    5.12   5.37    9  250   11  48.6  64.6 1027.9 -9.9 -9.999 -99.9 -99.99 -9.99
2018/10/19 06:18 EDT    5.15   5.41    9  247   11  48.4  64.8 1027.9 -9.9 -9.999 -99.9 -99.99 -9.99
2018/10/19 06:24 EDT    5.16   5.44    9  246   10  48.4  64.9 1027.9 -9.9 -9.999 -99.9 -99.99 -9.99
2018/10/19 06:30 EDT    5.17   5.46    9  243   11  48.0  65.1 1027.9 -9.9 -9.999 -99.9 -99.99 -9.99
2018/10/19 06:36 EDT    5.17   5.48    8  245   10  48.2  65.1 1027.9 -9.9 -9.999 -99.9 -99.99 -9.99
2018/10/19 06:42 EDT    5.17   5.49    7  254   10  48.6  65.3 1027.8 -9.9 -9.999 -99.9 -99.99 -9.99
2018/10/19 06:48 EDT    5.16   5.49    7  255    9  48.9  65.3 1027.8 -9.9 -9.999 -99.9 -99.99 -9.99
2018/10/19 06:54 EDT    5.14   5.48    9  260   10  48.9  65.5 1027.8 -9.9 -9.999 -99.9 -99.99 -9.99
2018/10/19 07:00 EDT    5.11   5.47    9  262   10  49.1  65.5 1027.8 -9.9 -9.999 -99.9 -99.99 -9.99
2018/10/19 07:06 EDT    5.08   5.44    8  256   10  49.3  65.5 1027.9 -9.9 -9.999 -99.9 -99.99 -9.99
2018/10/19 07:12 EDT    5.05   5.41    8  254    9  48.7  65.5 1027.9 -9.9 -9.999 -99.9 -99.99 -9.99
2018/10/19 07:18 EDT    5.00   5.37    8  258    9  49.1  65.5 1027.9 -9.9 -9.999 -99.9 -99.99 -9.99
2018/10/19 07:24 EDT    4.95   5.34    8  258   10  48.7  65.5 1027.9 -9.9 -9.999 -99.9 -99.99 -9.99
2018/10/19 07:30 EDT    4.90   5.24    8  248   10  48.7  65.5 1028.0 -9.9 -9.999 -99.9 -99.99 -9.99
2018/10/19 07:36 EDT    4.83   5.21    8  239   10  48.9  65.7 1028.0 -9.9 -9.999 -99.9 -99.99 -9.99
2018/10/19 07:42 EDT    4.77   5.14    8  248   10  49.1  65.7 1028.0 -9.9 -9.999 -99.9 -99.99 -9.99
2018/10/19 07:48 EDT    4.69   5.08    8  246   10  49.6  65.7 1028.0 -9.9 -9.999 -99.9 -99.99 -9.99
2018/10/19 07:54 EDT    4.62   4.99    8  252   10  49.5  65.7 1028.0 -9.9 -9.999 -99.9 -99.99 -9.99
2018/10/19 08:00 EDT    4.53   4.92    8  263    9  49.5  65.7 1027.9 -9.9 -9.999 -99.9 -99.99 -9.99
2018/10/19 08:06 EDT    4.45   4.83    8  251    9  49.8  65.7 1028.1 -9.9 -9.999 -99.9 -99.99 -9.99
2018/10/19 08:12 EDT    4.36   4.73    9  247   10  49.5  65.7 1028.1 -9.9 -9.999 -99.9 -99.99 -9.99
2018/10/19 08:18 EDT    4.26   4.64    9  247   10  49.8  65.5 1028.0 -9.9 -9.999 -99.9 -99.99 -9.99
2018/10/19 08:24 EDT    4.16   4.54   10  247   11  50.0  65.5 1028.1 -9.9 -9.999 -99.9 -99.99 -9.99
2018/10/19 08:30 EDT    4.06   4.43   10  245   11  50.4  65.5 1028.1 -9.9 -9.999 -99.9 -99.99 -9.99
2018/10/19 08:36 EDT    3.96   4.32    9  245   11  50.0  65.5 1028.1 -9.9 -9.999 -99.9 -99.99 -9.99
2018/10/19 08:42 EDT    3.85   4.22    9  244   11  49.8  65.5 1028.0 -9.9 -9.999 -99.9 -99.99 -9.99
2018/10/19 08:48 EDT    3.75   4.12   10  249   11  50.2  65.5 1028.0 -9.9 -9.999 -99.9 -99.99 -9.99
2018/10/19 08:54 EDT    3.64   4.01    9  249   11  50.5  65.5 1028.0 -9.9 -9.999 -99.9 -99.99 -9.99
2018/10/19 09:00 EDT    3.53   3.91    9  242   10  50.5  65.5 1027.9 -9.9 -9.999 -99.9 -99.99 -9.99
2018/10/19 09:06 EDT    3.42   3.82    9  240   11  50.7  65.5 1027.8 -9.9 -9.999 -99.9 -99.99 -9.99
2018/10/19 09:12 EDT    3.31   3.72    9  239   10  50.9  65.5 1027.9 -9.9 -9.999 -99.9 -99.99 -9.99
2018/10/19 09:18 EDT    3.20   3.61    9  241   10  51.1  65.5 1027.8 -9.9 -9.999 -99.9 -99.99 -9.99
2018/10/19 09:24 EDT    3.09   3.50    9  250   11  51.3  65.3 1027.9 -9.9 -9.999 -99.9 -99.99 -9.99
2018/10/19 09:30 EDT    2.98   3.39   10  251   11  51.3  65.1 1027.8 -9.9 -9.999 -99.9 -99.99 -9.99
2018/10/19 09:36 EDT    2.87   3.29   10  249   11  51.3  64.9 1027.7 -9.9 -9.999 -99.9 -99.99 -9.99
2018/10/19 09:42 EDT    2.77   3.17   10  247   12  51.8  64.8 1027.7 -9.9 -9.999 -99.9 -99.99 -9.99
2018/10/19 09:48 EDT    2.66   3.05   10  243   13  52.5  64.8 1027.7 -9.9 -9.999 -99.9 -99.99 -9.99
2018/10/19 09:54 EDT    2.56   2.95   12  250   12  52.3  64.8 1027.6 -9.9 -9.999 -99.9 -99.99 -9.99
2018/10/19 10:00 EDT    2.46   2.84   10  248   13  52.5  64.6 1027.6 -9.9 -9.999 -99.9 -99.99 -9.99
2018/10/19 10:06 EDT    2.36   2.72   11  246   12  52.9  64.6 1027.5 -9.9 -9.999 -99.9 -99.99 -9.99
2018/10/19 10:12 EDT    2.26   2.61   10  257   12  52.9  64.6 1027.4 -9.9 -9.999 -99.9 -99.99 -9.99
2018/10/19 10:18 EDT    2.17   2.51   10  250   12  53.2  64.6 1027.4 -9.9 -9.999 -99.9 -99.99 -9.99
2018/10/19 10:24 EDT    2.07   2.39   10  246   11  53.6  64.6 1027.3 -9.9 -9.999 -99.9 -99.99 -9.99
2018/10/19 10:30 EDT    1.98   2.29   10  255   13  53.6  64.4 1027.3 -9.9 -9.999 -99.9 -99.99 -9.99
2018/10/19 10:36 EDT    1.89   2.19   10  253   12  53.8  64.4 1027.2 -9.9 -9.999 -99.9 -99.99 -9.99
2018/10/19 10:42 EDT    1.81   2.10   11  248   13  54.3  64.4 1027.0 -9.9 -9.999 -99.9 -99.99 -9.99
2018/10/19 10:48 EDT    1.72   2.01    9  252   13  54.3  64.4 1027.0 -9.9 -9.999 -99.9 -99.99 -9.99
2018/10/19 10:54 EDT    1.64   1.92   10  249   13  54.5  64.4 1027.0 -9.9 -9.999 -99.9 -99.99 -9.99
2018/10/19 11:00 EDT    1.57   1.83   10  239   13  54.9  64.4 1027.0 -9.9 -9.999 -99.9 -99.99 -9.99
2018/10/19 11:06 EDT    1.49   1.75   11  236   13  55.0  64.4 1026.9 -9.9 -9.999 -99.9 -99.99 -9.99
2018/10/19 11:12 EDT    1.42   1.66   11  236   13  55.0  64.4 1026.8 -9.9 -9.999 -99.9 -99.99 -9.99
2018/10/19 11:18 EDT    1.35   1.58   11  244   13  55.2  64.4 1026.6 -9.9 -9.999 -99.9 -99.99 -9.99
2018/10/19 11:24 EDT    1.28   1.51    9  249   11  55.0  64.4 1026.6 -9.9 -9.999 -99.9 -99.99 -9.99
2018/10/19 11:30 EDT    1.21   1.44    9  249   11  55.2  64.2 1026.5 -9.9 -9.999 -99.9 -99.99 -9.99
2018/10/19 11:36 EDT    1.15   1.36    7  229   10  55.9  64.2 1026.3 -9.9 -9.999 -99.9 -99.99 -9.99
2018/10/19 11:42 EDT    1.10   1.28    9  242   12  56.1  64.2 1026.1 -9.9 -9.999 -99.9 -99.99 -9.99
2018/10/19 11:48 EDT    1.04   1.23    8  236   12  56.5  64.0 1026.1 -9.9 -9.999 -99.9 -99.99 -9.99
2018/10/19 11:54 EDT    0.99   1.17    6  241   11  56.3  64.0 1026.0 -9.9 -9.999 -99.9 -99.99 -9.99
2018/10/19 12:00 EDT    0.95   1.10    8  213   10  56.1  64.0 1026.0 -9.9 -9.999 -99.9 -99.99 -9.99
2018/10/19 12:06 EDT    0.91   1.07   11  229   13  56.7  64.2 1025.8 -9.9 -9.999 -99.9 -99.99 -9.99
2018/10/19 12:12 EDT    0.87   1.00   10  238   13  57.2  64.2 1025.7 -9.9 -9.999 -99.9 -99.99 -9.99
2018/10/19 12:18 EDT    0.84   0.96   10  255   12  56.5  64.2 1025.6 -9.9 -9.999 -99.9 -99.99 -9.99
2018/10/19 12:24 EDT    0.82   0.94   10  240   12  57.0  64.2 1025.3 -9.9 -9.999 -99.9 -99.99 -9.99
2018/10/19 12:30 EDT    0.81   0.91   12  227   14  57.2  64.2 1025.2 -9.9 -9.999 -99.9 -99.99 -9.99
2018/10/19 12:36 EDT    0.80   0.88   12  233   15  57.6  64.2 1025.0 -9.9 -9.999 -99.9 -99.99 -9.99
2018/10/19 12:42 EDT    0.79   0.88   10  243   13  57.6  64.2 1024.8 -9.9 -9.999 -99.9 -99.99 -9.99
2018/10/19 12:48 EDT    0.80   0.90   12  241   15  57.9  64.2 1024.5 -9.9 -9.999 -99.9 -99.99 -9.99
2018/10/19 12:54 EDT    0.81   0.89   11  232   15  58.1  64.4 1024.4 -9.9 -9.999 -99.9 -99.99 -9.99
2018/10/19 13:00 EDT    0.83   0.91   11  234   14  58.3  64.4 1024.2 -9.9 -9.999 -99.9 -99.99 -9.99
2018/10/19 13:06 EDT    0.86   0.95   10  247   13  58.6  64.4 1024.0 -9.9 -9.999 -99.9 -99.99 -9.99
2018/10/19 13:12 EDT    0.89   1.00   13  225   15  58.8  64.4 1023.9 -9.9 -9.999 -99.9 -99.99 -9.99
2018/10/19 13:18 EDT    0.94   1.06   11  241   13  59.0  64.4 1023.7 -9.9 -9.999 -99.9 -99.99 -9.99
2018/10/19 13:24 EDT    0.99   1.12   11  231   13  59.0  64.4 1023.6 -9.9 -9.999 -99.9 -99.99 -9.99
2018/10/19 13:30 EDT    1.05   1.18   11  232   15  59.5  64.4 1023.6 -9.9 -9.999 -99.9 -99.99 -9.99
2018/10/19 13:36 EDT    1.12   1.24   14  227   16  59.4  64.4 1023.4 -9.9 -9.999 -99.9 -99.99 -9.99
2018/10/19 13:42 EDT    1.19   1.30   14  224   17  59.7  64.4 1023.3 -9.9 -9.999 -99.9 -99.99 -9.99
2018/10/19 13:48 EDT    1.27   1.38   15  219   17  59.9  64.4 1023.2 -9.9 -9.999 -99.9 -99.99 -9.99
2018/10/19 13:54 EDT    1.36   1.46   10  236   14  60.1  64.6 1023.0 -9.9 -9.999 -99.9 -99.99 -9.99
2018/10/19 14:00 EDT    1.46   1.55   11  217   17  59.7  64.6 1022.8 -9.9 -9.999 -99.9 -99.99 -9.99
2018/10/19 14:06 EDT    1.56   1.64   11  217   14  60.1  64.6 1022.7 -9.9 -9.999 -99.9 -99.99 -9.99
2018/10/19 14:12 EDT    1.66   1.74   11  215   14  60.3  64.6 1022.5 -9.9 -9.999 -99.9 -99.99 -9.99
2018/10/19 14:18 EDT    1.77   1.82   10  214   15  60.6  64.8 1022.3 -9.9 -9.999 -99.9 -99.99 -9.99
2018/10/19 14:24 EDT    1.88   1.92   10  224   15  60.4  64.8 1022.1 -9.9 -9.999 -99.9 -99.99 -9.99
2018/10/19 14:30 EDT    2.00   2.03   11  213   15  60.4  64.8 1022.0 -9.9 -9.999 -99.9 -99.99 -9.99
2018/10/19 14:36 EDT    2.12   2.14   11  219   13  60.4  64.8 1021.5 -9.9 -9.999 -99.9 -99.99 -9.99
2018/10/19 14:42 EDT    2.24   2.26    8  218   13  60.8  64.8 1021.5 -9.9 -9.999 -99.9 -99.99 -9.99
2018/10/19 14:48 EDT    2.36 -99.99 -999 -999 -999 -99.9 -99.9 -999.9 -9.9 -9.999 -99.9 -99.99 -9.99
2018/10/19 14:54 EDT    2.49   2.51   13  223   17  61.0  64.6 1021.2 -9.9 -9.999 -99.9 -99.99 -9.99
2018/10/19 15:00 EDT    2.61   2.64   17  204   21  61.0  64.6 1021.1 -9.9 -9.999 -99.9 -99.99 -9.99
2018/10/19 15:06 EDT    2.73   2.76   14  223   20  61.0  64.6 1021.2 -9.9 -9.999 -99.9 -99.99 -9.99
2018/10/19 15:12 EDT    2.86   2.89   16  220   17  61.0  64.6 1020.9 -9.9 -9.999 -99.9 -99.99 -9.99
2018/10/19 15:18 EDT    2.98   3.02   16  212   19  61.0  64.6 1021.0 -9.9 -9.999 -99.9 -99.99 -9.99
2018/10/19 15:24 EDT    3.10   3.15   12  216   17  61.0  64.6 1021.0 -9.9 -9.999 -99.9 -99.99 -9.99
2018/10/19 15:30 EDT    3.22   3.27   16  207   17  61.3  64.6 1020.7 -9.9 -9.999 -99.9 -99.99 -9.99
2018/10/19 15:36 EDT    3.34   3.41   16  200   19  61.3  64.6 1020.5 -9.9 -9.999 -99.9 -99.99 -9.99
2018/10/19 15:42 EDT    3.46   3.54   13  199   16  61.5  64.6 1020.5 -9.9 -9.999 -99.9 -99.99 -9.99
2018/10/19 15:48 EDT    3.57   3.68   14  205   16  61.7  64.6 1020.4 -9.9 -9.999 -99.9 -99.99 -9.99
2018/10/19 15:54 EDT    3.68   3.80   14  210   17  61.7  64.6 1020.2 -9.9 -9.999 -99.9 -99.99 -9.99
2018/10/19 16:00 EDT    3.79   3.93   15  209   19  61.9  64.6 1020.2 -9.9 -9.999 -99.9 -99.99 -9.99
2018/10/19 16:06 EDT    3.90   4.04   13  224   16  61.7  64.8 1020.0 -9.9 -9.999 -99.9 -99.99 -9.99
2018/10/19 16:12 EDT    4.01   4.15   18  205   20  61.5  64.8 1019.8 -9.9 -9.999 -99.9 -99.99 -9.99
2018/10/19 16:18 EDT    4.11   4.27   17  220   20  61.7  64.8 1019.8 -9.9 -9.999 -99.9 -99.99 -9.99
2018/10/19 16:24 EDT    4.22   4.37   17  217   19  61.7  64.8 1019.8 -9.9 -9.999 -99.9 -99.99 -9.99
2018/10/19 16:30 EDT    4.32   4.47   16  217   18  61.7  64.8 1019.8 -9.9 -9.999 -99.9 -99.99 -9.99
2018/10/19 16:36 EDT    4.42   4.57   15  210   17  61.5  64.8 1019.7 -9.9 -9.999 -99.9 -99.99 -9.99
2018/10/19 16:42 EDT    4.51   4.66   17  208   19  61.7  64.8 1019.5 -9.9 -9.999 -99.9 -99.99 -9.99
2018/10/19 16:48 EDT    4.61   4.74   16  207   19  61.9  64.8 1019.4 -9.9 -9.999 -99.9 -99.99 -9.99
2018/10/19 16:54 EDT    4.70   4.85   17  211   20  61.7  64.8 1019.4 -9.9 -9.999 -99.9 -99.99 -9.99
2018/10/19 17:00 EDT    4.79   4.95   19  206   21  61.7  64.8 1019.3 -9.9 -9.999 -99.9 -99.99 -9.99
2018/10/19 17:06 EDT    4.87   5.03   18  199   20  61.7  64.8 1019.2 -9.9 -9.999 -99.9 -99.99 -9.99
2018/10/19 17:12 EDT    4.96   5.13   17  202   20  61.3  64.8 1019.1 -9.9 -9.999 -99.9 -99.99 -9.99
2018/10/19 17:18 EDT    5.04   5.20   17  201   20  61.3  64.8 1019.1 -9.9 -9.999 -99.9 -99.99 -9.99
2018/10/19 17:24 EDT    5.11   5.30   18  198   21  61.2  64.8 1019.1 -9.9 -9.999 -99.9 -99.99 -9.99
2018/10/19 17:30 EDT    5.19   5.35   20  203   22  61.0  64.8 1019.0 -9.9 -9.999 -99.9 -99.99 -9.99
2018/10/19 17:36 EDT    5.26   5.43   20  202   22  60.8  64.9 1018.9 -9.9 -9.999 -99.9 -99.99 -9.99
2018/10/19 17:42 EDT    5.33   5.51   20  202   22  60.6  64.9 1019.0 -9.9 -9.999 -99.9 -99.99 -9.99
2018/10/19 17:48 EDT    5.39   5.57   19  205   21  60.6  64.9 1019.0 -9.9 -9.999 -99.9 -99.99 -9.99
2018/10/19 17:54 EDT    5.45   5.63   17  206   21  60.4  65.1 1018.9 -9.9 -9.999 -99.9 -99.99 -9.99
2018/10/19 18:00 EDT    5.50   5.69   17  209   19  60.3  65.3 1018.9 -9.9 -9.999 -99.9 -99.99 -9.99
2018/10/19 18:06 EDT    5.55   5.73   16  206   19  60.1  65.5 1018.7 -9.9 -9.999 -99.9 -99.99 -9.99
2018/10/19 18:12 EDT    5.59   5.77   17  208   19  59.7  65.5 1018.7 -9.9 -9.999 -99.9 -99.99 -9.99
2018/10/19 18:18 EDT    5.63   5.80   17  206   19  59.7  65.7 1018.6 -9.9 -9.999 -99.9 -99.99 -9.99
2018/10/19 18:24 EDT    5.66   5.84   16  204   18  59.5  65.8 1018.5 -9.9 -9.999 -99.9 -99.99 -9.99
2018/10/19 18:30 EDT    5.69   5.86   17  202   19  59.4  65.8 1018.4 -9.9 -9.999 -99.9 -99.99 -9.99
2018/10/19 18:36 EDT    5.71   5.89   16  201   19  59.5  66.0 1018.2 -9.9 -9.999 -99.9 -99.99 -9.99
2018/10/19 18:42 EDT    5.72   5.90   17  199   18  59.4  66.0 1018.4 -9.9 -9.999 -99.9 -99.99 -9.99
2018/10/19 18:48 EDT    5.73   5.90   16  200   19  59.2  66.0 1018.4 -9.9 -9.999 -99.9 -99.99 -9.99
2018/10/19 18:54 EDT    5.73   5.90   16  197   19  59.2  66.0 1018.3 -9.9 -9.999 -99.9 -99.99 -9.99
2018/10/19 19:00 EDT    5.72   5.90   16  196   19  59.2  66.0 1018.3 -9.9 -9.999 -99.9 -99.99 -9.99
2018/10/19 19:06 EDT    5.71   5.88   16  196   18  59.0  66.0 1018.2 -9.9 -9.999 -99.9 -99.99 -9.99
2018/10/19 19:12 EDT    5.69   5.87   16  193   18  59.2  66.0 1018.1 -9.9 -9.999 -99.9 -99.99 -9.99
2018/10/19 19:18 EDT    5.66   5.86   15  192   17  59.0  66.0 1018.0 -9.9 -9.999 -99.9 -99.99 -9.99
2018/10/19 19:24 EDT    5.63   5.83   16  193   18  59.0  66.0 1018.1 -9.9 -9.999 -99.9 -99.99 -9.99
2018/10/19 19:30 EDT    5.59   5.79   16  193   18  59.0  66.0 1018.0 -9.9 -9.999 -99.9 -99.99 -9.99
2018/10/19 19:36 EDT    5.54   5.75   18  195   20  58.8  66.0 1017.9 -9.9 -9.999 -99.9 -99.99 -9.99
2018/10/19 19:42 EDT    5.49   5.71   18  195   21  58.6  66.0 1017.8 -9.9 -9.999 -99.9 -99.99 -9.99
2018/10/19 19:48 EDT    5.43   5.67   18  196   21  58.5  66.0 1017.9 -9.9 -9.999 -99.9 -99.99 -9.99
2018/10/19 19:54 EDT    5.36   5.62   17  196   21  58.3  66.0 1017.7 -9.9 -9.999 -99.9 -99.99 -9.99
2018/10/19 20:00 EDT    5.29   5.55   17  192   19  58.1  65.8 1017.6 -9.9 -9.999 -99.9 -99.99 -9.99
2018/10/19 20:06 EDT    5.21   5.49   18  196   20  58.1  65.8 1017.5 -9.9 -9.999 -99.9 -99.99 -9.99
2018/10/19 20:12 EDT    5.13   5.42   17  193   19  58.1  65.8 1017.5 -9.9 -9.999 -99.9 -99.99 -9.99
2018/10/19 20:18 EDT    5.04   5.34   18  194   20  58.3  65.8 1017.4 -9.9 -9.999 -99.9 -99.99 -9.99
2018/10/19 20:24 EDT    4.95   5.26   18  194   22  58.1  65.7 1017.2 -9.9 -9.999 -99.9 -99.99 -9.99
2018/10/19 20:30 EDT    4.86   5.17   17  195   22  58.5  65.7 1017.2 -9.9 -9.999 -99.9 -99.99 -9.99
2018/10/19 20:36 EDT    4.76   5.09   18  193   21  58.1  65.7 1017.1 -9.9 -9.999 -99.9 -99.99 -9.99
2018/10/19 20:42 EDT    4.65   5.00   18  193   21  57.9  65.7 1016.9 -9.9 -9.999 -99.9 -99.99 -9.99
2018/10/19 20:48 EDT    4.54   4.89   19  194   21  57.9  65.7 1017.0 -9.9 -9.999 -99.9 -99.99 -9.99
2018/10/19 20:54 EDT    4.43   4.80   18  193   20  58.1  65.7 1017.0 -9.9 -9.999 -99.9 -99.99 -9.99
2018/10/19 21:00 EDT    4.32   4.70   20  189   22  57.9  65.7 1016.7 -9.9 -9.999 -99.9 -99.99 -9.99
2018/10/19 21:06 EDT    4.21   4.60   19  195   22  57.6  65.7 1016.8 -9.9 -9.999 -99.9 -99.99 -9.99
2018/10/19 21:12 EDT    4.09   4.49   18  191   22  57.9  65.7 1016.7 -9.9 -9.999 -99.9 -99.99 -9.99
2018/10/19 21:18 EDT    3.97   4.38   18  190   21  57.7  65.7 1016.7 -9.9 -9.999 -99.9 -99.99 -9.99
2018/10/19 21:24 EDT    3.85   4.28   17  194   20  57.9  65.7 1016.8 -9.9 -9.999 -99.9 -99.99 -9.99
2018/10/19 21:30 EDT    3.73   4.15   19  192   21  57.7  65.5 1016.8 -9.9 -9.999 -99.9 -99.99 -9.99
2018/10/19 21:36 EDT    3.61   4.03   17  196   20  57.4  65.5 1016.7 -9.9 -9.999 -99.9 -99.99 -9.99
2018/10/19 21:42 EDT    3.49   3.90   15  193   19  57.4  65.5 1016.6 -9.9 -9.999 -99.9 -99.99 -9.99
2018/10/19 21:48 EDT    3.38   3.78   15  197   18  57.4  65.3 1016.5 -9.9 -9.999 -99.9 -99.99 -9.99
2018/10/19 21:54 EDT    3.26   3.67   15  192   18  57.6  65.3 1016.3 -9.9 -9.999 -99.9 -99.99 -9.99
2018/10/19 22:00 EDT    3.14   3.51   14  192   17  57.4  65.3 1016.3 -9.9 -9.999 -99.9 -99.99 -9.99
2018/10/19 22:06 EDT    3.02   3.37   15  188   17  57.2  65.1 1016.0 -9.9 -9.999 -99.9 -99.99 -9.99
2018/10/19 22:12 EDT    2.91   3.25   14  188   17  57.4  65.1 1015.9 -9.9 -9.999 -99.9 -99.99 -9.99
2018/10/19 22:18 EDT    2.79 -99.99 -999 -999 -999 -99.9 -99.9 -999.9 -9.9 -9.999 -99.9 -99.99 -9.99
2018/10/19 22:24 EDT    2.68 -99.99 -999 -999 -999 -99.9 -99.9 -999.9 -9.9 -9.999 -99.9 -99.99 -9.99
2018/10/19 22:30 EDT    2.57 -99.99 -999 -999 -999 -99.9 -99.9 -999.9 -9.9 -9.999 -99.9 -99.99 -9.99
2018/10/19 22:36 EDT    2.46 -99.99 -999 -999 -999 -99.9 -99.9 -999.9 -9.9 -9.999 -99.9 -99.99 -9.99
2018/10/19 22:42 EDT    2.36 -99.99 -999 -999 -999 -99.9 -99.9 -999.9 -9.9 -9.999 -99.9 -99.99 -9.99
2018/10/19 22:48 EDT    2.25 -99.99 -999 -999 -999 -99.9 -99.9 -999.9 -9.9 -9.999 -99.9 -99.99 -9.99
2018/10/19 22:54 EDT    2.15 -99.99 -999 -999 -999 -99.9 -99.9 -999.9 -9.9 -9.999 -99.9 -99.99 -9.99
2018/10/19 23:00 EDT    2.05 -99.99 -999 -999 -999 -99.9 -99.9 -999.9 -9.9 -9.999 -99.9 -99.99 -9.99
2018/10/19 23:06 EDT    1.95 -99.99 -999 -999 -999 -99.9 -99.9 -999.9 -9.9 -9.999 -99.9 -99.99 -9.99
2018/10/19 23:12 EDT    1.86 -99.99 -999 -999 -999 -99.9 -99.9 -999.9 -9.9 -9.999 -99.9 -99.99 -9.99
2018/10/19 23:18 EDT    1.76 -99.99 -999 -999 -999 -99.9 -99.9 -999.9 -9.9 -9.999 -99.9 -99.99 -9.99
2018/10/19 23:24 EDT    1.67 -99.99 -999 -999 -999 -99.9 -99.9 -999.9 -9.9 -9.999 -99.9 -99.99 -9.99
2018/10/19 23:30 EDT    1.58 -99.99 -999 -999 -999 -99.9 -99.9 -999.9 -9.9 -9.999 -99.9 -99.99 -9.99
2018/10/19 23:36 EDT    1.49 -99.99 -999 -999 -999 -99.9 -99.9 -999.9 -9.9 -9.999 -99.9 -99.99 -9.99
2018/10/19 23:42 EDT    1.41 -99.99 -999 -999 -999 -99.9 -99.9 -999.9 -9.9 -9.999 -99.9 -99.99 -9.99
2018/10/19 23:48 EDT    1.32 -99.99 -999 -999 -999 -99.9 -99.9 -999.9 -9.9 -9.999 -99.9 -99.99 -9.99
2018/10/19 23:54 EDT    1.24 -99.99 -999 -999 -999 -99.9 -99.9 -999.9 -9.9 -9.999 -99.9 -99.99 -9.99
2018/10/20 00:00 EDT    1.16 -99.99 -999 -999 -999 -99.9 -99.9 -999.9 -9.9 -9.999 -99.9 -99.99 -9.99
2018/10/20 00:06 EDT    1.09 -99.99 -999 -999 -999 -99.9 -99.9 -999.9 -9.9 -9.999 -99.9 -99.99 -9.99
2018/10/20 00:12 EDT    1.02 -99.99 -999 -999 -999 -99.9 -99.9 -999.9 -9.9 -9.999 -99.9 -99.99 -9.99
2018/10/20 00:18 EDT    0.95 -99.99 -999 -999 -999 -99.9 -99.9 -999.9 -9.9 -9.999 -99.9 -99.99 -9.99
2018/10/20 00:24 EDT    0.89 -99.99 -999 -999 -999 -99.9 -99.9 -999.9 -9.9 -9.999 -99.9 -99.99 -9.99
2018/10/20 00:30 EDT    0.83 -99.99 -999 -999 -999 -99.9 -99.9 -999.9 -9.9 -9.999 -99.9 -99.99 -9.99
2018/10/20 00:36 EDT    0.78 -99.99 -999 -999 -999 -99.9 -99.9 -999.9 -9.9 -9.999 -99.9 -99.99 -9.99
2018/10/20 00:42 EDT    0.73 -99.99 -999 -999 -999 -99.9 -99.9 -999.9 -9.9 -9.999 -99.9 -99.99 -9.99
2018/10/20 00:48 EDT    0.69 -99.99 -999 -999 -999 -99.9 -99.9 -999.9 -9.9 -9.999 -99.9 -99.99 -9.99
2018/10/20 00:54 EDT    0.65 -99.99 -999 -999 -999 -99.9 -99.9 -999.9 -9.9 -9.999 -99.9 -99.99 -9.99
2018/10/20 01:00 EDT    0.62 -99.99 -999 -999 -999 -99.9 -99.9 -999.9 -9.9 -9.999 -99.9 -99.99 -9.99
2018/10/20 01:06 EDT    0.60 -99.99 -999 -999 -999 -99.9 -99.9 -999.9 -9.9 -9.999 -99.9 -99.99 -9.99
2018/10/20 01:12 EDT    0.58 -99.99 -999 -999 -999 -99.9 -99.9 -999.9 -9.9 -9.999 -99.9 -99.99 -9.99
2018/10/20 01:18 EDT    0.57 -99.99 -999 -999 -999 -99.9 -99.9 -999.9 -9.9 -9.999 -99.9 -99.99 -9.99
2018/10/20 01:24 EDT    0.57 -99.99 -999 -999 -999 -99.9 -99.9 -999.9 -9.9 -9.999 -99.9 -99.99 -9.99
2018/10/20 01:30 EDT    0.58 -99.99 -999 -999 -999 -99.9 -99.9 -999.9 -9.9 -9.999 -99.9 -99.99 -9.99
2018/10/20 01:36 EDT    0.60 -99.99 -999 -999 -999 -99.9 -99.9 -999.9 -9.9 -9.999 -99.9 -99.99 -9.99
2018/10/20 01:42 EDT    0.62 -99.99 -999 -999 -999 -99.9 -99.9 -999.9 -9.9 -9.999 -99.9 -99.99 -9.99
2018/10/20 01:48 EDT    0.65 -99.99 -999 -999 -999 -99.9 -99.9 -999.9 -9.9 -9.999 -99.9 -99.99 -9.99
2018/10/20 01:54 EDT    0.69 -99.99 -999 -999 -999 -99.9 -99.9 -999.9 -9.9 -9.999 -99.9 -99.99 -9.99
2018/10/20 02:00 EDT    0.74 -99.99 -999 -999 -999 -99.9 -99.9 -999.9 -9.9 -9.999 -99.9 -99.99 -9.99
2018/10/20 02:06 EDT    0.80 -99.99 -999 -999 -999 -99.9 -99.9 -999.9 -9.9 -9.999 -99.9 -99.99 -9.99
2018/10/20 02:12 EDT    0.86 -99.99 -999 -999 -999 -99.9 -99.9 -999.9 -9.9 -9.999 -99.9 -99.99 -9.99
2018/10/20 02:18 EDT    0.93 -99.99 -999 -999 -999 -99.9 -99.9 -999.9 -9.9 -9.999 -99.9 -99.99 -9.99
2018/10/20 02:24 EDT    1.01 -99.99 -999 -999 -999 -99.9 -99.9 -999.9 -9.9 -9.999 -99.9 -99.99 -9.99
2018/10/20 02:30 EDT    1.09 -99.99 -999 -999 -999 -99.9 -99.9 -999.9 -9.9 -9.999 -99.9 -99.99 -9.99
2018/10/20 02:36 EDT    1.18 -99.99 -999 -999 -999 -99.9 -99.9 -999.9 -9.9 -9.999 -99.9 -99.99 -9.99
2018/10/20 02:42 EDT    1.28 -99.99 -999 -999 -999 -99.9 -99.9 -999.9 -9.9 -9.999 -99.9 -99.99 -9.99
2018/10/20 02:48 EDT    1.38 -99.99 -999 -999 -999 -99.9 -99.9 -999.9 -9.9 -9.999 -99.9 -99.99 -9.99
2018/10/20 02:54 EDT    1.48 -99.99 -999 -999 -999 -99.9 -99.9 -999.9 -9.9 -9.999 -99.9 -99.99 -9.99
2018/10/20 03:00 EDT    1.58 -99.99 -999 -999 -999 -99.9 -99.9 -999.9 -9.9 -9.999 -99.9 -99.99 -9.99
2018/10/20 03:06 EDT    1.69 -99.99 -999 -999 -999 -99.9 -99.9 -999.9 -9.9 -9.999 -99.9 -99.99 -9.99
2018/10/20 03:12 EDT    1.80 -99.99 -999 -999 -999 -99.9 -99.9 -999.9 -9.9 -9.999 -99.9 -99.99 -9.99
2018/10/20 03:18 EDT    1.92 -99.99 -999 -999 -999 -99.9 -99.9 -999.9 -9.9 -9.999 -99.9 -99.99 -9.99
2018/10/20 03:24 EDT    2.03 -99.99 -999 -999 -999 -99.9 -99.9 -999.9 -9.9 -9.999 -99.9 -99.99 -9.99
2018/10/20 03:30 EDT    2.15 -99.99 -999 -999 -999 -99.9 -99.9 -999.9 -9.9 -9.999 -99.9 -99.99 -9.99
2018/10/20 03:36 EDT    2.26 -99.99 -999 -999 -999 -99.9 -99.9 -999.9 -9.9 -9.999 -99.9 -99.99 -9.99
2018/10/20 03:42 EDT    2.38 -99.99 -999 -999 -999 -99.9 -99.9 -999.9 -9.9 -9.999 -99.9 -99.99 -9.99
2018/10/20 03:48 EDT    2.50 -99.99 -999 -999 -999 -99.9 -99.9 -999.9 -9.9 -9.999 -99.9 -99.99 -9.99
2018/10/20 03:54 EDT    2.61 -99.99 -999 -999 -999 -99.9 -99.9 -999.9 -9.9 -9.999 -99.9 -99.99 -9.99
2018/10/20 04:00 EDT    2.73 -99.99 -999 -999 -999 -99.9 -99.9 -999.9 -9.9 -9.999 -99.9 -99.99 -9.99
2018/10/20 04:06 EDT    2.84 -99.99 -999 -999 -999 -99.9 -99.9 -999.9 -9.9 -9.999 -99.9 -99.99 -9.99
2018/10/20 04:12 EDT    2.96 -99.99 -999 -999 -999 -99.9 -99.9 -999.9 -9.9 -9.999 -99.9 -99.99 -9.99
2018/10/20 04:18 EDT    3.07 -99.99 -999 -999 -999 -99.9 -99.9 -999.9 -9.9 -9.999 -99.9 -99.99 -9.99

Revised: 08/08/2018
NOAA / National Ocean Service
Web site owner: Center for Operational Oceanographic Products and Services